Time;durP1;ratioP1;P1;durP2;ratioP2;P2;SDS_P1;SDS_P2;PMS_P1;PMS_P2;Temp;Humidity;BMP_temperature;BMP_pressure;BME280_temperature;BME280_humidity;BME280_pressure;Samples;Min_cycle;Max_cycle;Signal;HPM_P1;HPM_P2
2021/05/27 00:02:44;;;;;;;4.57;1.98;;;;;;;;;;7052431;28;20181;-84
2021/05/27 00:06:04;;;;;;;4.50;2.00;;;;;;;;;;7036065;28;20051;-83
2021/05/27 00:09:25;;;;;;;4.85;2.05;;;;;;;;;;7058082;28;20047;-83
2021/05/27 00:12:45;;;;;;;5.05;2.03;;;;;;;;;;7056847;28;20089;-83
2021/05/27 00:16:06;;;;;;;3.40;1.73;;;;;;;;;;7056502;28;20038;-83
2021/05/27 00:19:26;;;;;;;2.50;1.80;;;;;;;;;;7055341;28;20063;-83
2021/05/27 00:22:47;;;;;;;5.05;2.00;;;;;;;;;;7054802;28;20181;-82
2021/05/27 00:26:07;;;;;;;4.22;1.88;;;;;;;;;;7051767;28;20059;-83
2021/05/27 00:29:28;;;;;;;5.40;2.20;;;;;;;;;;7036878;28;20047;-83
2021/05/27 00:32:49;;;;;;;5.25;1.90;;;;;;;;;;7095176;22;20147;-84
2021/05/27 00:36:09;;;;;;;3.25;1.80;;;;;;;;;;7011776;28;20055;-84
2021/05/27 00:39:30;;;;;;;3.72;1.70;;;;;;;;;;7013974;28;20036;-83
2021/05/27 00:42:50;;;;;;;3.58;1.85;;;;;;;;;;7008197;28;20083;-83
2021/05/27 00:46:10;;;;;;;2.78;1.83;;;;;;;;;;7008293;28;20055;-83
2021/05/27 00:49:31;;;;;;;3.03;1.98;;;;;;;;;;7005266;28;20087;-83
2021/05/27 00:52:53;;;;;;;4.40;1.83;;;;;;;;;;7019353;28;20131;-83
2021/05/27 00:56:14;;;;;;;8.35;2.05;;;;;;;;;;7025612;28;20382;-83
2021/05/27 00:59:35;;;;;;;4.55;1.70;;;;;;;;;;6995757;28;20054;-85
2021/05/27 01:02:55;;;;;;;2.65;1.70;;;;;;;;;;6989307;28;20040;-83
2021/05/27 01:06:16;;;;;;;5.25;2.20;;;;;;;;;;7007538;28;20048;-83
2021/05/27 01:09:36;;;;;;;5.90;1.58;;;;;;;;;;7010543;28;20119;-84
2021/05/27 01:12:57;;;;;;;3.58;1.70;;;;;;;;;;7019141;28;20048;-83
2021/05/27 01:16:22;;;;;;;4.75;1.83;;;;;;;;;;7011640;28;20056;-84
2021/05/27 01:19:42;;;;;;;4.05;1.90;;;;;;;;;;7049156;28;20040;-83
2021/05/27 01:23:03;;;;;;;4.28;1.83;;;;;;;;;;7040485;28;20058;-83
2021/05/27 01:26:23;;;;;;;4.53;1.77;;;;;;;;;;7020103;28;20059;-82
2021/05/27 01:29:51;;;;;;;4.07;2.00;;;;;;;;;;7037808;28;20047;-84
2021/05/27 01:33:17;;;;;;;3.13;2.08;;;;;;;;;;7009119;28;20047;-84
2021/05/27 01:36:44;;;;;;;3.33;1.77;;;;;;;;;;7029162;28;20438;-84
2021/05/27 01:40:06;;;;;;;3.15;1.60;;;;;;;;;;7029104;28;20060;-84
2021/05/27 01:43:27;;;;;;;4.70;1.83;;;;;;;;;;7032407;28;20153;-83
2021/05/27 01:46:49;;;;;;;2.63;1.77;;;;;;;;;;7022934;28;20142;-84
2021/05/27 01:50:10;;;;;;;4.38;1.80;;;;;;;;;;7027318;28;20164;-84
2021/05/27 01:53:31;;;;;;;2.67;1.92;;;;;;;;;;7036564;28;20500;-84
2021/05/27 01:56:51;;;;;;;4.45;1.92;;;;;;;;;;7053381;28;20094;-84
2021/05/27 02:00:12;;;;;;;1.83;1.52;;;;;;;;;;7023160;28;20090;-83
2021/05/27 02:03:32;;;;;;;3.33;1.60;;;;;;;;;;7008517;28;20044;-84
2021/05/27 02:06:53;;;;;;;2.15;1.50;;;;;;;;;;7012228;28;20139;-84
2021/05/27 02:10:14;;;;;;;3.67;1.83;;;;;;;;;;7025322;28;20071;-84
2021/05/27 02:13:35;;;;;;;2.83;1.70;;;;;;;;;;7015811;28;20500;-85
2021/05/27 02:16:55;;;;;;;2.83;1.70;;;;;;;;;;7020532;28;20123;-84
2021/05/27 02:20:16;;;;;;;6.40;1.92;;;;;;;;;;7016003;28;20053;-84
2021/05/27 02:23:36;;;;;;;2.47;1.70;;;;;;;;;;7020431;28;20044;-84
2021/05/27 02:26:56;;;;;;;2.45;1.67;;;;;;;;;;7023857;28;20138;-83
2021/05/27 02:30:17;;;;;;;3.42;1.65;;;;;;;;;;7024160;28;20478;-83
2021/05/27 02:33:38;;;;;;;1.70;1.50;;;;;;;;;;7029413;28;20445;-83
2021/05/27 02:36:58;;;;;;;2.80;1.35;;;;;;;;;;7028686;28;20405;-83
2021/05/27 02:40:19;;;;;;;3.55;1.77;;;;;;;;;;7014916;28;20541;-86
2021/05/27 02:43:39;;;;;;;2.75;1.63;;;;;;;;;;7021551;28;20046;-84
2021/05/27 02:46:59;;;;;;;3.05;1.70;;;;;;;;;;7023927;28;20090;-84
2021/05/27 02:50:20;;;;;;;3.22;1.63;;;;;;;;;;7019239;28;20055;-84
2021/05/27 02:53:40;;;;;;;1.85;1.48;;;;;;;;;;7005365;28;20036;-85
2021/05/27 02:57:01;;;;;;;2.33;1.50;;;;;;;;;;7030597;28;20131;-83
2021/05/27 03:00:21;;;;;;;2.15;1.55;;;;;;;;;;7021161;28;20048;-84
2021/05/27 03:03:42;;;;;;;6.18;1.75;;;;;;;;;;7023342;28;20976;-84
2021/05/27 03:07:02;;;;;;;5.88;1.48;;;;;;;;;;7023110;28;20101;-84
2021/05/27 03:10:23;;;;;;;3.08;1.60;;;;;;;;;;7027219;28;20041;-84
2021/05/27 03:13:43;;;;;;;2.90;1.67;;;;;;;;;;7010741;28;20131;-83
2021/05/27 03:17:04;;;;;;;3.35;1.90;;;;;;;;;;7026834;28;20071;-83
2021/05/27 03:20:24;;;;;;;1.90;1.55;;;;;;;;;;7048582;28;20181;-82
2021/05/27 03:23:45;;;;;;;2.10;1.42;;;;;;;;;;7018464;28;20134;-84
2021/05/27 03:27:09;;;;;;;3.50;1.55;;;;;;;;;;7028754;28;20056;-83
2021/05/27 03:30:30;;;;;;;2.20;1.55;;;;;;;;;;7022228;28;20991;-83
2021/05/27 03:33:50;;;;;;;2.30;1.60;;;;;;;;;;7033321;28;20076;-82
2021/05/27 03:37:11;;;;;;;3.72;1.65;;;;;;;;;;7012955;28;20070;-83
2021/05/27 03:40:31;;;;;;;3.10;1.50;;;;;;;;;;7016890;28;20052;-82
2021/05/27 03:43:52;;;;;;;5.97;2.22;;;;;;;;;;7034691;28;20071;-82
2021/05/27 03:47:12;;;;;;;3.55;1.40;;;;;;;;;;7031325;28;20051;-82
2021/05/27 03:50:33;;;;;;;2.58;1.50;;;;;;;;;;7029484;28;20392;-82
2021/05/27 03:53:53;;;;;;;3.17;1.50;;;;;;;;;;7024743;28;20048;-83
2021/05/27 03:57:14;;;;;;;2.20;1.58;;;;;;;;;;7048104;28;20063;-81
2021/05/27 04:00:46;;;;;;;2.42;1.52;;;;;;;;;;7027131;28;20087;-81
2021/05/27 04:07:46;;;;;;;2.13;1.42;;;;;;;;;;7044858;28;20052;-83
2021/05/27 04:11:06;;;;;;;3.45;1.50;;;;;;;;;;7000103;28;20079;-82
2021/05/27 04:14:26;;;;;;;5.10;1.90;;;;;;;;;;7029977;28;20056;-82
2021/05/27 04:17:48;;;;;;;3.83;1.50;;;;;;;;;;7022171;28;20067;-82
2021/05/27 04:21:09;;;;;;;2.13;1.60;;;;;;;;;;7036566;28;20128;-82
2021/05/27 04:24:29;;;;;;;1.77;1.55;;;;;;;;;;7020070;28;20040;-81
2021/05/27 04:27:50;;;;;;;2.78;1.48;;;;;;;;;;7008272;28;20087;-82
2021/05/27 04:31:17;;;;;;;1.95;1.60;;;;;;;;;;7025273;28;20504;-82
2021/05/27 04:34:37;;;;;;;2.03;1.52;;;;;;;;;;7026394;28;20606;-82
2021/05/27 04:38:03;;;;;;;2.40;1.60;;;;;;;;;;7025945;28;20142;-82
2021/05/27 04:41:23;;;;;;;1.52;1.38;;;;;;;;;;7045350;28;20044;-82
2021/05/27 04:44:44;;;;;;;2.47;1.75;;;;;;;;;;7027108;28;20040;-81
2021/05/27 04:48:09;;;;;;;2.28;1.63;;;;;;;;;;7039353;28;20122;-82
2021/05/27 04:51:29;;;;;;;2.08;1.35;;;;;;;;;;7051100;28;20063;-82
2021/05/27 04:54:50;;;;;;;2.40;1.60;;;;;;;;;;7048299;28;20059;-83
2021/05/27 04:58:10;;;;;;;2.60;1.40;;;;;;;;;;7019645;28;20044;-84
2021/05/27 05:01:33;;;;;;;2.13;1.50;;;;;;;;;;7036699;28;20119;-86
2021/05/27 05:04:53;;;;;;;1.63;1.40;;;;;;;;;;7025601;28;20150;-84
2021/05/27 05:08:14;;;;;;;1.73;1.40;;;;;;;;;;7025728;28;20389;-84
2021/05/27 05:11:34;;;;;;;3.55;1.65;;;;;;;;;;7035101;28;20490;-84
2021/05/27 05:14:54;;;;;;;3.83;1.60;;;;;;;;;;7035952;28;20051;-84
2021/05/27 05:18:18;;;;;;;1.85;1.60;;;;;;;;;;7024397;28;20186;-83
2021/05/27 05:21:38;;;;;;;1.30;1.20;;;;;;;;;;7014064;28;20079;-84
2021/05/27 05:24:58;;;;;;;2.05;1.48;;;;;;;;;;7025336;28;20048;-82
2021/05/27 05:28:19;;;;;;;4.88;1.20;;;;;;;;;;7017033;28;20128;-79
2021/05/27 05:31:39;;;;;;;2.85;1.60;;;;;;;;;;7027285;28;20509;-80
2021/05/27 05:35:00;;;;;;;1.48;1.38;;;;;;;;;;7039231;28;20143;-79
2021/05/27 05:38:21;;;;;;;3.50;3.20;;;;;;;;;;7023244;28;20485;-79
2021/05/27 05:41:41;;;;;;;3.60;3.30;;;;;;;;;;7016296;28;20054;-80
2021/05/27 05:45:03;;;;;;;3.47;3.10;;;;;;;;;;7025256;28;20075;-79
2021/05/27 05:48:23;;;;;;;9.45;8.75;;;;;;;;;;7026335;28;20047;-79
2021/05/27 05:51:44;;;;;;;8.40;7.88;;;;;;;;;;7007340;28;20109;-80
2021/05/27 05:55:05;;;;;;;8.77;8.02;;;;;;;;;;6996915;28;20040;-80
2021/05/27 05:58:26;;;;;;;2.97;2.22;;;;;;;;;;7000242;28;20080;-79
2021/05/27 06:01:46;;;;;;;3.97;1.98;;;;;;;;;;7016400;28;20039;-82
2021/05/27 06:05:07;;;;;;;3.10;2.33;;;;;;;;;;7023997;28;20135;-82
2021/05/27 06:08:28;;;;;;;4.18;2.00;;;;;;;;;;7015065;28;20047;-81
2021/05/27 06:11:49;;;;;;;4.03;2.25;;;;;;;;;;7011609;28;20050;-81
2021/05/27 06:15:10;;;;;;;3.20;2.40;;;;;;;;;;7021154;28;20048;-80
2021/05/27 06:18:30;;;;;;;5.68;2.20;;;;;;;;;;7005405;28;20132;-82
2021/05/27 06:21:50;;;;;;;4.25;2.10;;;;;;;;;;7007105;28;20551;-82
2021/05/27 06:25:11;;;;;;;2.45;2.20;;;;;;;;;;7024191;28;20035;-82
2021/05/27 06:28:32;;;;;;;4.25;2.28;;;;;;;;;;7014603;28;20055;-82
2021/05/27 06:31:52;;;;;;;2.50;1.98;;;;;;;;;;7017383;28;20492;-83
2021/05/27 06:35:14;;;;;;;5.80;2.17;;;;;;;;;;6996689;28;21021;-82
2021/05/27 06:38:35;;;;;;;6.82;1.95;;;;;;;;;;7014488;28;20490;-82
2021/05/27 06:41:56;;;;;;;17.63;6.05;;;;;;;;;;7018121;28;20051;-82
2021/05/27 06:45:18;;;;;;;25.02;7.25;;;;;;;;;;7026643;28;20383;-82
2021/05/27 06:48:39;;;;;;;10.45;5.85;;;;;;;;;;7023571;28;20040;-84
2021/05/27 06:52:00;;;;;;;14.50;6.30;;;;;;;;;;7025111;28;20053;-82
2021/05/27 06:55:21;;;;;;;13.43;6.03;;;;;;;;;;7011025;28;20059;-82
2021/05/27 06:58:41;;;;;;;16.30;6.30;;;;;;;;;;7013258;28;20082;-83
2021/05/27 07:02:02;;;;;;;20.63;8.93;;;;;;;;;;7014620;28;20048;-82
2021/05/27 07:05:23;;;;;;;15.93;10.15;;;;;;;;;;7025769;28;20056;-82
2021/05/27 07:08:43;;;;;;;16.48;10.02;;;;;;;;;;7014101;28;20047;-82
2021/05/27 07:12:08;;;;;;;17.92;9.77;;;;;;;;;;7023069;28;20048;-83
2021/05/27 07:15:29;;;;;;;19.95;7.35;;;;;;;;;;7014587;28;20053;-83
2021/05/27 07:18:49;;;;;;;10.85;5.93;;;;;;;;;;7015928;28;20207;-83
2021/05/27 07:22:09;;;;;;;15.65;9.48;;;;;;;;;;7009066;28;20056;-84
2021/05/27 07:25:30;;;;;;;14.60;8.98;;;;;;;;;;7017707;28;20044;-82
2021/05/27 07:28:50;;;;;;;15.25;8.07;;;;;;;;;;7021966;28;20052;-82
2021/05/27 07:32:11;;;;;;;11.77;5.78;;;;;;;;;;7031104;28;20056;-80
2021/05/27 07:35:31;;;;;;;7.57;5.30;;;;;;;;;;7046958;28;20040;-81
2021/05/27 07:38:52;;;;;;;11.30;5.32;;;;;;;;;;7023337;28;20446;-80
2021/05/27 07:42:13;;;;;;;11.52;5.75;;;;;;;;;;7034885;28;20361;-79
2021/05/27 07:45:33;;;;;;;11.38;5.55;;;;;;;;;;7023999;28;20521;-80
2021/05/27 07:48:54;;;;;;;14.70;5.40;;;;;;;;;;6975646;28;20142;-79
2021/05/27 07:52:15;;;;;;;10.02;5.22;;;;;;;;;;7017997;28;20048;-80
2021/05/27 07:55:36;;;;;;;15.95;5.53;;;;;;;;;;7022661;28;20128;-79
2021/05/27 07:58:56;;;;;;;12.70;4.60;;;;;;;;;;7030881;28;20060;-81
2021/05/27 08:02:17;;;;;;;14.60;4.60;;;;;;;;;;7020928;28;20055;-83
2021/05/27 08:05:37;;;;;;;8.23;4.70;;;;;;;;;;7018023;28;20040;-82
2021/05/27 08:08:58;;;;;;;11.52;4.38;;;;;;;;;;7034384;28;20058;-81
2021/05/27 08:12:18;;;;;;;12.73;4.82;;;;;;;;;;7019529;28;20055;-80
2021/05/27 08:15:39;;;;;;;10.95;4.55;;;;;;;;;;7019063;28;20043;-82
2021/05/27 08:19:00;;;;;;;11.23;3.92;;;;;;;;;;7020925;28;20143;-82
2021/05/27 08:22:21;;;;;;;9.50;4.05;;;;;;;;;;7011265;28;20040;-81
2021/05/27 08:25:41;;;;;;;8.05;3.70;;;;;;;;;;7029789;28;20054;-82
2021/05/27 08:29:02;;;;;;;11.52;3.83;;;;;;;;;;7027458;28;20075;-81
2021/05/27 08:32:23;;;;;;;9.57;4.10;;;;;;;;;;7031004;28;20047;-81
2021/05/27 08:35:43;;;;;;;13.90;3.72;;;;;;;;;;7020436;28;20055;-81
2021/05/27 08:39:09;;;;;;;11.65;3.50;;;;;;;;;;7031029;28;20048;-82
2021/05/27 08:42:29;;;;;;;7.75;3.42;;;;;;;;;;7024468;28;20494;-80
2021/05/27 08:45:50;;;;;;;7.28;3.42;;;;;;;;;;7016095;28;20060;-81
2021/05/27 08:49:12;;;;;;;12.25;3.55;;;;;;;;;;7019153;28;20122;-82
2021/05/27 08:52:33;;;;;;;4.43;2.55;;;;;;;;;;7025172;28;20040;-82
2021/05/27 08:55:54;;;;;;;5.45;3.13;;;;;;;;;;7022006;28;20075;-81
2021/05/27 08:59:14;;;;;;;8.10;3.30;;;;;;;;;;7025191;28;20142;-82
2021/05/27 09:02:52;;;;;;;10.93;3.22;;;;;;;;;;7032770;28;20043;-81
2021/05/27 09:06:13;;;;;;;10.90;3.50;;;;;;;;;;7028014;28;20056;-82
2021/05/27 09:09:53;;;;;;;10.98;2.95;;;;;;;;;;7021126;28;20076;-80
2021/05/27 09:13:20;;;;;;;5.05;2.83;;;;;;;;;;7032166;28;20524;-80
2021/05/27 09:16:58;;;;;;;4.88;2.50;;;;;;;;;;7005556;28;20043;-81
2021/05/27 09:20:25;;;;;;;6.15;2.90;;;;;;;;;;7005791;28;20135;-81
2021/05/27 09:23:50;;;;;;;7.38;3.13;;;;;;;;;;7020715;28;20044;-80
2021/05/27 09:27:11;;;;;;;4.70;2.75;;;;;;;;;;7025198;28;20074;-80
2021/05/27 09:30:41;;;;;;;6.88;2.83;;;;;;;;;;7009432;28;20425;-81
2021/05/27 09:34:03;;;;;;;10.68;2.85;;;;;;;;;;7023666;28;20044;-82
2021/05/27 09:37:29;;;;;;;13.07;3.05;;;;;;;;;;7023433;28;20048;-82
2021/05/27 09:40:50;;;;;;;8.60;3.10;;;;;;;;;;7007354;28;20040;-81
2021/05/27 09:44:10;;;;;;;4.05;2.35;;;;;;;;;;7023053;28;20151;-81
2021/05/27 09:47:32;;;;;;;5.47;2.60;;;;;;;;;;7007980;28;20059;-81
2021/05/27 09:50:58;;;;;;;7.40;2.97;;;;;;;;;;7021558;28;20048;-80
2021/05/27 09:54:19;;;;;;;5.93;2.45;;;;;;;;;;7023810;28;20477;-81
2021/05/27 09:57:42;;;;;;;6.40;2.45;;;;;;;;;;7044062;28;20047;-81
2021/05/27 10:01:08;;;;;;;7.88;2.30;;;;;;;;;;7027725;28;20044;-80
2021/05/27 10:04:28;;;;;;;5.97;2.63;;;;;;;;;;7036318;28;20085;-81
2021/05/27 10:07:51;;;;;;;4.53;2.40;;;;;;;;;;7021625;28;20378;-82
2021/05/27 10:11:11;;;;;;;2.60;2.20;;;;;;;;;;7014239;28;20489;-80
2021/05/27 10:14:31;;;;;;;7.13;2.70;;;;;;;;;;7020435;28;20135;-81
2021/05/27 10:17:54;;;;;;;4.60;2.38;;;;;;;;;;7005779;28;20057;-81
2021/05/27 10:21:15;;;;;;;4.78;2.53;;;;;;;;;;7023799;28;20071;-81
2021/05/27 10:24:36;;;;;;;6.15;2.30;;;;;;;;;;7036117;28;20047;-81
2021/05/27 10:27:58;;;;;;;9.40;2.70;;;;;;;;;;7019360;28;20048;-81
2021/05/27 10:31:20;;;;;;;4.38;2.30;;;;;;;;;;7006812;28;20083;-81
2021/05/27 10:34:50;;;;;;;6.13;2.75;;;;;;;;;;6998478;28;20074;-81
2021/05/27 10:38:10;;;;;;;4.15;2.50;;;;;;;;;;7009229;28;20044;-81
2021/05/27 10:41:31;;;;;;;6.07;3.08;;;;;;;;;;6986868;28;20045;-81
2021/05/27 10:45:10;;;;;;;4.95;2.80;;;;;;;;;;7005568;28;20454;-81
2021/05/27 10:48:42;;;;;;;3.47;2.15;;;;;;;;;;7008373;28;20401;-83
2021/05/27 10:52:38;;;;;;;5.72;3.63;;;;;;;;;;7013227;28;20082;-83
2021/05/27 10:56:18;;;;;;;7.63;4.47;;;;;;;;;;7017287;28;20044;-82
2021/05/27 10:59:39;;;;;;;12.68;5.43;;;;;;;;;;7024985;28;20044;-81
2021/05/27 11:03:37;;;;;;;16.02;6.28;;;;;;;;;;7023757;28;20071;-81
2021/05/27 11:07:20;;;;;;;11.70;5.07;;;;;;;;;;7021964;28;20060;-80
2021/05/27 11:10:41;;;;;;;13.95;5.28;;;;;;;;;;7031242;28;20052;-80
2021/05/27 11:14:16;;;;;;;16.88;4.88;;;;;;;;;;7019775;28;20098;-79
2021/05/27 11:17:37;;;;;;;15.55;4.28;;;;;;;;;;7006727;28;20043;-80
2021/05/27 11:20:58;;;;;;;13.02;4.55;;;;;;;;;;7024545;28;20131;-81
2021/05/27 11:24:37;;;;;;;9.10;4.22;;;;;;;;;;7006987;28;20481;-81
2021/05/27 11:28:03;;;;;;;;;;;;;;;;;;7008443;28;20548;-80
2021/05/27 11:31:44;;;;;;;15.80;3.30;;;;;;;;;;7023362;28;19916;-82
2021/05/27 11:35:05;;;;;;;7.05;3.30;;;;;;;;;;7030686;28;20393;-83
2021/05/27 11:38:28;;;;;;;12.27;3.72;;;;;;;;;;7027133;28;20036;-81
2021/05/27 11:41:49;;;;;;;10.20;3.60;;;;;;;;;;7028401;28;20070;-79
2021/05/27 11:45:10;;;;;;;10.18;3.38;;;;;;;;;;7007377;28;20044;-81
2021/05/27 11:48:35;;;;;;;7.75;3.10;;;;;;;;;;7023263;28;20484;-80
2021/05/27 11:51:55;;;;;;;7.32;2.88;;;;;;;;;;7010840;28;20048;-81
2021/05/27 11:55:16;;;;;;;7.00;3.03;;;;;;;;;;7010955;28;20086;-80
2021/05/27 11:58:41;;;;;;;5.32;2.70;;;;;;;;;;7029065;28;20036;-80
2021/05/27 12:02:02;;;;;;;10.07;2.72;;;;;;;;;;7007076;28;20108;-80
2021/05/27 12:05:30;;;;;;;10.63;3.00;;;;;;;;;;7026566;28;20055;-80
2021/05/27 12:08:51;;;;;;;5.03;2.23;;;;;;;;;;7014330;28;20520;-80
2021/05/27 12:12:21;;;;;;;6.07;3.08;;;;;;;;;;7020839;28;20048;-81
2021/05/27 12:15:43;;;;;;;8.43;2.70;;;;;;;;;;7026037;28;20093;-81
2021/05/27 12:19:06;;;;;;;6.22;2.63;;;;;;;;;;6992257;28;20571;-80
2021/05/27 12:22:55;;;;;;;8.23;2.60;;;;;;;;;;7016001;28;20143;-79
2021/05/27 12:26:16;;;;;;;5.65;2.50;;;;;;;;;;7011972;28;20090;-80
2021/05/27 12:29:36;;;;;;;5.78;2.88;;;;;;;;;;7027041;28;20048;-79
2021/05/27 12:32:58;;;;;;;7.78;2.30;;;;;;;;;;7065480;22;20412;-79
2021/05/27 12:36:19;;;;;;;4.35;2.25;;;;;;;;;;7034904;28;20104;-80
2021/05/27 12:39:39;;;;;;;4.85;2.22;;;;;;;;;;7029901;28;20054;-81
2021/05/27 12:43:01;;;;;;;8.25;2.63;;;;;;;;;;7050699;28;20051;-80
2021/05/27 12:46:32;;;;;;;6.38;2.47;;;;;;;;;;7048064;28;20146;-79
2021/05/27 12:49:53;;;;;;;6.70;2.25;;;;;;;;;;7038572;28;20051;-79
2021/05/27 12:53:25;;;;;;;5.85;2.92;;;;;;;;;;7048797;28;20138;-80
2021/05/27 12:57:00;;;;;;;4.90;2.25;;;;;;;;;;7049866;28;20126;-80
2021/05/27 13:00:22;;;;;;;9.63;2.65;;;;;;;;;;7048173;28;20138;-80
2021/05/27 13:03:48;;;;;;;3.60;2.25;;;;;;;;;;7047344;28;20042;-80
2021/05/27 13:07:13;;;;;;;4.35;2.38;;;;;;;;;;7049144;28;20063;-81
2021/05/27 13:10:36;;;;;;;6.07;2.67;;;;;;;;;;7033226;28;20146;-79
2021/05/27 13:13:58;;;;;;;8.73;3.63;;;;;;;;;;7053599;28;20051;-81
2021/05/27 13:17:18;;;;;;;8.27;3.47;;;;;;;;;;7049556;28;20092;-81
2021/05/27 13:21:11;;;;;;;7.18;2.88;;;;;;;;;;7036534;28;20047;-81
2021/05/27 13:24:36;;;;;;;7.25;3.63;;;;;;;;;;6998995;28;20099;-82
2021/05/27 13:27:59;;;;;;;13.07;3.30;;;;;;;;;;7051447;28;20036;-82
2021/05/27 13:31:36;;;;;;;33.45;4.90;;;;;;;;;;7051113;28;20055;-90
2021/05/27 13:35:03;;;;;;;31.20;4.22;;;;;;;;;;7024151;28;20059;-90
2021/05/27 13:38:25;;;;;;;40.03;4.50;;;;;;;;;;7035382;28;20389;-89
2021/05/27 13:41:47;;;;;;;25.17;4.43;;;;;;;;;;7016276;28;20128;-92
2021/05/27 13:45:13;;;;;;;26.95;4.30;;;;;;;;;;6950268;28;20060;-89
2021/05/27 13:48:35;;;;;;;18.75;3.40;;;;;;;;;;6992179;28;20114;-95
2021/05/27 13:51:56;;;;;;;19.05;3.47;;;;;;;;;;7000996;28;20048;-94
2021/05/27 13:55:18;;;;;;;16.50;3.33;;;;;;;;;;6994215;28;20045;-89
2021/05/27 13:58:38;;;;;;;7.25;3.20;;;;;;;;;;6996280;28;20079;-93
2021/05/27 14:01:59;;;;;;;14.63;3.83;;;;;;;;;;7002139;28;20052;-92
2021/05/27 14:05:20;;;;;;;14.00;3.45;;;;;;;;;;6996703;28;20053;-93
2021/05/27 14:08:41;;;;;;;12.98;3.30;;;;;;;;;;6997467;28;20108;-94
2021/05/27 14:12:02;;;;;;;9.32;2.85;;;;;;;;;;6999072;28;20101;-92
2021/05/27 14:15:24;;;;;;;11.05;2.75;;;;;;;;;;6992503;28;20041;-96
2021/05/27 14:18:45;;;;;;;9.23;2.78;;;;;;;;;;6996507;28;20062;-92
2021/05/27 14:22:06;;;;;;;11.30;3.20;;;;;;;;;;7004049;28;20067;-94
2021/05/27 14:25:27;;;;;;;7.53;2.15;;;;;;;;;;6982873;28;20044;-96
2021/05/27 14:28:48;;;;;;;10.05;2.80;;;;;;;;;;6982937;28;20101;-94
2021/05/27 14:32:08;;;;;;;8.68;2.85;;;;;;;;;;6999166;28;20080;-94
2021/05/27 14:35:29;;;;;;;7.10;2.80;;;;;;;;;;6996587;28;20143;-90
2021/05/27 14:38:50;;;;;;;8.35;2.65;;;;;;;;;;6998551;28;20131;-92
2021/05/27 14:42:11;;;;;;;11.48;2.83;;;;;;;;;;6999508;28;20120;-95
2021/05/27 14:45:33;;;;;;;6.13;2.75;;;;;;;;;;6995900;28;20051;-93
2021/05/27 14:48:53;;;;;;;6.85;2.50;;;;;;;;;;6996371;28;20570;-90
2021/05/27 14:52:14;;;;;;;10.23;3.00;;;;;;;;;;6998834;28;20131;-90
2021/05/27 14:55:35;;;;;;;10.85;2.33;;;;;;;;;;6979423;28;20084;-90
2021/05/27 14:58:56;;;;;;;6.93;2.75;;;;;;;;;;6997216;28;20132;-90
2021/05/27 15:02:17;;;;;;;6.00;2.53;;;;;;;;;;6996179;28;20044;-90
2021/05/27 15:05:38;;;;;;;11.95;2.45;;;;;;;;;;6996466;28;20037;-88
2021/05/27 15:08:58;;;;;;;7.05;2.30;;;;;;;;;;6998881;28;20059;-87
2021/05/27 15:12:19;;;;;;;6.40;2.53;;;;;;;;;;7008971;28;20049;-88
2021/05/27 15:15:39;;;;;;;9.82;2.00;;;;;;;;;;6995485;28;20064;-89
2021/05/27 15:19:02;;;;;;;7.00;2.60;;;;;;;;;;6996877;28;20049;-90
2021/05/27 15:22:23;;;;;;;10.15;2.58;;;;;;;;;;6995267;28;20142;-88
2021/05/27 15:25:44;;;;;;;2.65;2.00;;;;;;;;;;6994137;28;20052;-88
2021/05/27 15:29:16;;;;;;;4.90;2.20;;;;;;;;;;6996370;28;20122;-88
2021/05/27 15:32:38;;;;;;;12.15;2.15;;;;;;;;;;6995291;28;20059;-88
2021/05/27 15:35:58;;;;;;;5.60;2.20;;;;;;;;;;6992313;28;20083;-88
2021/05/27 15:39:18;;;;;;;5.88;2.55;;;;;;;;;;7002715;28;20052;-88
2021/05/27 15:42:39;;;;;;;6.75;2.55;;;;;;;;;;7009942;28;20044;-88
2021/05/27 15:45:59;;;;;;;4.55;1.98;;;;;;;;;;6993678;28;20144;-88
2021/05/27 15:49:20;;;;;;;8.00;2.10;;;;;;;;;;6992693;28;20080;-87
2021/05/27 15:52:40;;;;;;;10.90;2.15;;;;;;;;;;6992610;28;20123;-88
2021/05/27 15:56:03;;;;;;;4.80;2.20;;;;;;;;;;6980836;28;20105;-88
2021/05/27 15:59:23;;;;;;;3.03;1.83;;;;;;;;;;6993776;28;20123;-88
2021/05/27 16:02:44;;;;;;;6.25;2.00;;;;;;;;;;6993545;28;20079;-88
2021/05/27 16:06:04;;;;;;;6.95;1.98;;;;;;;;;;6993950;28;20102;-86
2021/05/27 16:09:25;;;;;;;4.90;1.70;;;;;;;;;;6994242;28;20491;-88
2021/05/27 16:12:45;;;;;;;7.60;2.05;;;;;;;;;;6991040;28;20044;-91
2021/05/27 16:16:06;;;;;;;4.22;1.90;;;;;;;;;;6992988;28;20507;-87
2021/05/27 16:19:26;;;;;;;5.50;2.35;;;;;;;;;;6994155;28;20490;-90
2021/05/27 16:22:47;;;;;;;4.72;1.83;;;;;;;;;;6991711;28;20056;-87
2021/05/27 16:26:08;;;;;;;2.90;1.77;;;;;;;;;;6996789;28;20055;-87
2021/05/27 16:29:28;;;;;;;8.75;2.00;;;;;;;;;;6996722;28;20044;-88
2021/05/27 16:32:49;;;;;;;6.28;2.25;;;;;;;;;;6996367;28;20046;-86
2021/05/27 16:40:03;;;;;;;5.18;2.10;;;;;;;;;;6941422;28;20049;-86
2021/05/27 16:43:24;;;;;;;8.18;2.00;;;;;;;;;;6997101;28;20052;-85
2021/05/27 16:46:44;;;;;;;2.90;1.80;;;;;;;;;;6996633;28;20137;-86
2021/05/27 16:50:05;;;;;;;2.92;1.92;;;;;;;;;;6998533;28;20532;-83
2021/05/27 16:53:25;;;;;;;3.78;1.60;;;;;;;;;;6995312;28;20048;-83
2021/05/27 16:56:46;;;;;;;2.50;1.50;;;;;;;;;;6990959;28;20512;-84
2021/05/27 17:00:07;;;;;;;2.80;1.90;;;;;;;;;;7002231;28;20075;-85
2021/05/27 17:03:27;;;;;;;3.35;1.70;;;;;;;;;;6996092;28;20044;-86
2021/05/27 17:06:48;;;;;;;6.50;1.92;;;;;;;;;;6995436;28;20087;-87
2021/05/27 17:10:09;;;;;;;4.35;1.73;;;;;;;;;;6997378;28;20110;-87
2021/05/27 17:13:29;;;;;;;4.35;1.70;;;;;;;;;;6997370;28;20131;-87
2021/05/27 17:16:50;;;;;;;4.55;1.70;;;;;;;;;;6995475;28;20033;-84
2021/05/27 17:20:12;;;;;;;13.55;1.85;;;;;;;;;;6995796;28;20097;-89
2021/05/27 17:23:32;;;;;;;4.93;1.50;;;;;;;;;;6994382;28;20075;-87
2021/05/27 17:26:52;;;;;;;3.20;1.60;;;;;;;;;;6996592;28;20048;-87
2021/05/27 17:30:15;;;;;;;1.98;1.70;;;;;;;;;;6996431;28;20386;-85
2021/05/27 17:33:35;;;;;;;3.78;1.80;;;;;;;;;;6994413;28;20049;-86
2021/05/27 17:36:57;;;;;;;10.57;2.58;;;;;;;;;;6985012;28;20060;-83
2021/05/27 17:40:20;;;;;;;5.53;4.15;;;;;;;;;;6997673;28;20402;-84
2021/05/27 17:43:41;;;;;;;4.35;2.38;;;;;;;;;;6987270;28;20505;-84
2021/05/27 17:47:05;;;;;;;3.30;2.08;;;;;;;;;;6995426;28;20080;-86
2021/05/27 17:50:27;;;;;;;4.03;2.92;;;;;;;;;;6996187;28;20371;-85
2021/05/27 17:53:47;;;;;;;6.20;3.45;;;;;;;;;;6996207;28;20040;-85
2021/05/27 17:57:08;;;;;;;8.95;3.65;;;;;;;;;;6994971;28;20113;-85
2021/05/27 18:00:30;;;;;;;5.80;3.00;;;;;;;;;;6989211;28;20044;-85
2021/05/27 18:03:50;;;;;;;13.38;4.75;;;;;;;;;;6995091;28;20037;-85
2021/05/27 18:07:11;;;;;;;5.18;4.00;;;;;;;;;;6996583;28;20143;-86
2021/05/27 18:10:31;;;;;;;4.55;3.13;;;;;;;;;;6990499;28;20056;-87
2021/05/27 18:13:52;;;;;;;5.43;2.30;;;;;;;;;;6990968;28;20053;-85
2021/05/27 18:17:12;;;;;;;5.43;2.55;;;;;;;;;;6996028;28;20060;-86
2021/05/27 18:20:33;;;;;;;7.13;2.28;;;;;;;;;;6993870;28;20052;-85
2021/05/27 18:23:53;;;;;;;2.13;1.52;;;;;;;;;;6995049;28;20044;-85
2021/05/27 18:27:14;;;;;;;2.95;1.60;;;;;;;;;;6996262;28;20048;-85
2021/05/27 18:30:35;;;;;;;4.63;2.00;;;;;;;;;;6999028;28;20072;-85
2021/05/27 18:33:55;;;;;;;7.82;2.30;;;;;;;;;;6991496;28;20448;-84
2021/05/27 18:37:16;;;;;;;8.15;2.90;;;;;;;;;;6995789;28;20555;-84
2021/05/27 18:40:38;;;;;;;4.60;2.50;;;;;;;;;;7002897;28;20123;-83
2021/05/27 18:43:59;;;;;;;4.45;2.30;;;;;;;;;;6995251;28;20045;-84
2021/05/27 18:47:20;;;;;;;5.95;2.03;;;;;;;;;;6995785;28;20054;-84
2021/05/27 18:50:42;;;;;;;7.80;2.30;;;;;;;;;;6994558;28;20032;-83
2021/05/27 18:54:03;;;;;;;5.28;2.40;;;;;;;;;;6994171;28;20037;-83
2021/05/27 18:57:24;;;;;;;7.10;2.20;;;;;;;;;;6981162;28;20052;-84
2021/05/27 19:00:45;;;;;;;5.45;1.92;;;;;;;;;;6994674;28;20033;-83
2021/05/27 19:04:05;;;;;;;12.25;2.38;;;;;;;;;;6994138;28;20490;-83
2021/05/27 19:07:26;;;;;;;3.67;1.95;;;;;;;;;;6998574;28;20059;-86
2021/05/27 19:10:46;;;;;;;6.65;2.10;;;;;;;;;;6995170;28;20502;-84
2021/05/27 19:14:07;;;;;;;4.72;1.77;;;;;;;;;;6998553;28;20056;-86
2021/05/27 19:17:27;;;;;;;4.75;1.92;;;;;;;;;;6994980;28;20064;-85
2021/05/27 19:20:47;;;;;;;4.60;1.92;;;;;;;;;;6998891;28;20127;-85
2021/05/27 19:24:08;;;;;;;6.75;1.80;;;;;;;;;;6999388;28;20072;-85
2021/05/27 19:27:28;;;;;;;3.80;1.85;;;;;;;;;;6994495;28;20363;-85
2021/05/27 19:30:49;;;;;;;6.57;1.85;;;;;;;;;;6999224;28;20044;-85
2021/05/27 19:34:10;;;;;;;3.13;1.40;;;;;;;;;;6994561;28;20090;-85
2021/05/27 19:37:30;;;;;;;6.80;2.05;;;;;;;;;;6998969;28;20064;-85
2021/05/27 19:40:51;;;;;;;5.13;1.27;;;;;;;;;;6994685;28;20139;-84
2021/05/27 19:44:11;;;;;;;6.80;1.48;;;;;;;;;;6996367;28;20131;-85
2021/05/27 19:47:32;;;;;;;5.65;1.48;;;;;;;;;;7001188;28;20044;-84
2021/05/27 19:50:53;;;;;;;3.55;1.73;;;;;;;;;;7015409;28;20043;-85
2021/05/27 19:54:14;;;;;;;4.32;1.48;;;;;;;;;;6998031;28;20131;-85
2021/05/27 19:57:35;;;;;;;2.95;1.50;;;;;;;;;;6998755;28;20045;-85
2021/05/27 20:00:56;;;;;;;4.05;1.67;;;;;;;;;;6998208;28;20052;-86
2021/05/27 20:04:17;;;;;;;3.45;1.70;;;;;;;;;;6996908;28;20047;-83
2021/05/27 20:07:38;;;;;;;6.88;1.90;;;;;;;;;;6996488;28;20044;-88
2021/05/27 20:10:59;;;;;;;11.35;2.45;;;;;;;;;;6986633;28;20470;-92
2021/05/27 20:14:19;;;;;;;23.00;3.05;;;;;;;;;;6998104;28;20076;-90
2021/05/27 20:17:40;;;;;;;24.13;3.00;;;;;;;;;;6995990;28;20767;-87